Time;durP1;ratioP1;P1;durP2;ratioP2;P2;SDS_P1;SDS_P2;PMS_P1;PMS_P2;Temp;Humidity;BMP_temperature;BMP_pressure;BME280_temperature;BME280_humidity;BME280_pressure;Samples;Min_cycle;Max_cycle;Signal;HPM_P1;HPM_P2
2021/07/14 00:02:26;;;;;;;5.43;3.47;;;;;;;21.82;100.00;100239.34;5076056;28;20490;-69
2021/07/14 00:04:53;;;;;;;4.70;4.20;;;;;;;21.79;100.00;100234.63;5076061;28;20444;-69
2021/07/14 00:07:20;;;;;;;6.87;3.80;;;;;;;21.79;100.00;100231.88;5075813;28;20556;-69
2021/07/14 00:09:46;;;;;;;6.33;4.30;;;;;;;21.80;100.00;100230.69;5075861;28;20472;-70
2021/07/14 00:12:14;;;;;;;6.50;4.40;;;;;;;21.84;100.00;100230.69;5075923;28;20811;-69
2021/07/14 00:15:01;;;;;;;8.53;4.90;;;;;;;21.86;100.00;100218.09;5075781;28;20438;-70
2021/07/14 00:17:48;;;;;;;4.60;2.93;;;;;;;21.85;100.00;100222.03;5075808;28;20479;-69
2021/07/14 00:23:00;;;;;;;6.93;4.83;;;;;;;21.84;100.00;100217.69;5075529;28;20421;-68
2021/07/14 00:25:26;;;;;;;7.77;4.63;;;;;;;21.85;100.00;100227.53;5075584;28;20444;-68
2021/07/14 00:27:53;;;;;;;6.70;4.50;;;;;;;21.84;100.00;100214.94;5075242;28;20489;-68
2021/07/14 00:30:25;;;;;;;4.83;3.57;;;;;;;21.82;100.00;100211.75;5075587;28;20430;-68
2021/07/14 00:32:52;;;;;;;5.63;4.20;;;;;;;21.82;100.00;100206.25;5075477;28;20448;-68
2021/07/14 00:35:20;;;;;;;6.53;4.53;;;;;;;21.82;100.00;100206.25;5075463;28;20469;-68
2021/07/14 00:37:46;;;;;;;5.07;4.00;;;;;;;21.80;100.00;100203.09;5075475;28;20437;-69
2021/07/14 00:40:14;;;;;;;6.60;4.30;;;;;;;21.78;100.00;100199.97;5074994;28;20953;-69
2021/07/14 00:42:41;;;;;;;7.83;4.83;;;;;;;21.79;100.00;100200.75;5075406;28;20441;-69
2021/07/14 00:45:09;;;;;;;7.93;4.40;;;;;;;21.78;100.00;100194.44;5075281;28;20450;-68
2021/07/14 00:47:37;;;;;;;6.00;5.10;;;;;;;21.79;100.00;100200.75;5075086;28;20484;-69
2021/07/14 00:50:06;;;;;;;6.73;4.37;;;;;;;21.79;100.00;100201.53;5074785;28;20441;-68
2021/07/14 00:52:36;;;;;;;7.50;4.87;;;;;;;21.76;100.00;100199.53;5075126;28;20453;-69
2021/07/14 00:55:03;;;;;;;12.60;4.03;;;;;;;21.77;100.00;100209.38;5074729;28;21020;-69
2021/07/14 00:57:31;;;;;;;6.97;4.53;;;;;;;21.75;100.00;100222.78;5074948;28;20445;-68
2021/07/14 00:59:58;;;;;;;15.73;5.20;;;;;;;21.73;100.00;100230.63;5074946;28;20437;-70
2021/07/14 01:02:26;;;;;;;6.53;4.00;;;;;;;21.72;100.00;100239.28;5075243;28;20858;-69
2021/07/14 01:05:02;;;;;;;6.37;4.63;;;;;;;21.69;100.00;100240.06;5074524;28;20462;-70
2021/07/14 01:07:32;;;;;;;7.63;5.10;;;;;;;21.57;100.00;100246.69;5074644;28;20461;-69
2021/07/14 01:10:04;;;;;;;7.00;4.40;;;;;;;21.56;100.00;100245.09;5074531;28;20870;-69
2021/07/14 01:12:38;;;;;;;6.17;3.80;;;;;;;21.52;100.00;100245.09;5074727;28;20433;-70
2021/07/14 01:15:09;;;;;;;5.67;3.27;;;;;;;21.49;100.00;100242.31;5074432;28;20907;-69
2021/07/14 01:17:39;;;;;;;6.37;4.37;;;;;;;21.46;100.00;100232.81;5074583;28;20480;-69
2021/07/14 01:20:16;;;;;;;7.37;2.90;;;;;;;21.46;100.00;100223.78;5074852;28;20425;-69
2021/07/14 01:22:50;;;;;;;5.60;3.37;;;;;;;21.44;100.00;100217.88;5074308;28;20429;-69
2021/07/14 01:25:30;;;;;;;4.90;3.10;;;;;;;21.37;100.00;100205.59;5074252;28;20425;-69
2021/07/14 01:27:59;;;;;;;4.57;3.17;;;;;;;21.33;100.00;100215.81;5073973;28;20489;-70
2021/07/14 01:30:26;;;;;;;5.77;3.47;;;;;;;21.34;100.00;100228.44;5074415;28;20454;-69
2021/07/14 01:32:53;;;;;;;5.30;3.27;;;;;;;21.36;100.00;100231.59;5074300;28;20437;-69
2021/07/14 01:35:28;;;;;;;7.20;3.40;;;;;;;21.36;100.00;100225.28;5074059;28;20848;-69
2021/07/14 01:37:55;;;;;;;7.73;3.87;;;;;;;21.34;100.00;100225.69;5074186;28;20844;-68
2021/07/14 01:40:24;;;;;;;4.97;3.50;;;;;;;21.30;100.00;100219.31;5073880;28;20457;-69
2021/07/14 01:42:53;;;;;;;5.70;4.00;;;;;;;21.26;100.00;100220.47;5073954;28;20452;-68
2021/07/14 01:45:21;;;;;;;3.60;2.80;;;;;;;21.24;100.00;100220.84;5074096;28;20445;-69
2021/07/14 01:47:49;;;;;;;4.93;3.70;;;;;;;21.24;100.00;100218.06;5073883;28;20521;-68
2021/07/14 01:50:17;;;;;;;5.70;3.80;;;;;;;21.24;100.00;100233.81;5074043;28;20441;-69
2021/07/14 01:52:44;;;;;;;5.53;3.50;;;;;;;21.23;100.00;100246.00;5073933;28;20477;-69
2021/07/14 01:55:13;;;;;;;5.97;3.93;;;;;;;21.21;100.00;100242.88;5073691;28;20943;-69
2021/07/14 01:57:41;;;;;;;5.70;3.67;;;;;;;21.19;100.00;100240.47;5073776;28;20437;-69
2021/07/14 02:00:10;;;;;;;6.03;4.13;;;;;;;21.19;100.00;100239.69;5073786;28;20468;-69
2021/07/14 02:02:48;;;;;;;7.13;3.23;;;;;;;21.16;100.00;100235.72;5073031;28;20448;-70
2021/07/14 02:05:14;;;;;;;4.47;3.37;;;;;;;21.15;100.00;100234.13;5074189;28;20461;-69
2021/07/14 02:07:41;;;;;;;5.63;3.37;;;;;;;21.14;100.00;100232.56;5073580;28;20484;-70
2021/07/14 02:10:08;;;;;;;6.47;4.33;;;;;;;21.10;100.00;100229.00;5073652;28;20448;-69
2021/07/14 02:12:36;;;;;;;4.87;3.13;;;;;;;21.08;100.00;100229.38;5073561;28;20441;-70
2021/07/14 02:15:05;;;;;;;4.77;3.07;;;;;;;21.06;100.00;100233.69;5073545;28;20440;-69
2021/07/14 02:17:35;;;;;;;4.10;3.37;;;;;;;20.98;100.00;100226.53;5073449;28;20446;-69
2021/07/14 02:20:24;;;;;;;7.03;4.13;;;;;;;20.95;100.00;100235.56;5073232;28;20994;-69
2021/07/14 02:22:52;;;;;;;10.93;4.90;;;;;;;20.94;100.00;100240.28;5073472;28;20445;-70
2021/07/14 02:25:19;;;;;;;7.40;5.00;;;;;;;20.90;100.00;100223.72;5073550;28;20445;-69
2021/07/14 02:27:46;;;;;;;6.10;3.27;;;;;;;20.90;100.00;100225.69;5073065;28;20481;-69
2021/07/14 02:30:18;;;;;;;6.77;4.37;;;;;;;20.88;100.00;100226.03;5073203;28;20826;-69
2021/07/14 02:32:46;;;;;;;7.37;4.53;;;;;;;20.88;100.00;100226.03;5073350;28;20483;-69
2021/07/14 02:35:15;;;;;;;9.00;5.40;;;;;;;20.86;100.00;100227.63;5073346;28;20452;-68
2021/07/14 02:37:47;;;;;;;9.50;4.50;;;;;;;20.84;100.00;100227.19;5073033;28;20839;-70
2021/07/14 02:40:22;;;;;;;7.93;4.40;;;;;;;20.86;100.00;100228.41;5073430;28;20465;-70
2021/07/14 02:42:50;;;;;;;5.50;3.93;;;;;;;20.87;100.00;100235.47;5073240;28;20429;-70
2021/07/14 02:45:16;;;;;;;9.93;5.40;;;;;;;20.88;100.00;100241.78;5072985;28;20984;-69
2021/07/14 02:47:44;;;;;;;9.93;5.80;;;;;;;20.89;100.00;100233.16;5073062;28;20483;-71
2021/07/14 02:50:16;;;;;;;5.63;3.70;;;;;;;20.88;100.00;100241.78;5072912;28;20465;-69
2021/07/14 02:52:48;;;;;;;7.50;4.93;;;;;;;20.91;100.00;100252.84;5073283;28;20449;-71
2021/07/14 02:55:18;;;;;;;10.13;5.13;;;;;;;20.89;100.00;100249.69;5073262;28;20845;-69
2021/07/14 02:57:46;;;;;;;7.00;4.67;;;;;;;20.89;100.00;100248.88;5072939;28;20445;-71
2021/07/14 03:00:14;;;;;;;9.57;4.93;;;;;;;20.88;100.00;100255.53;5073104;28;20627;-70
2021/07/14 03:02:42;;;;;;;8.17;5.27;;;;;;;20.89;100.00;100255.19;5073079;28;20461;-70
2021/07/14 03:05:10;;;;;;;7.73;4.70;;;;;;;20.90;100.00;100253.22;5073144;28;20441;-69
2021/07/14 03:07:39;;;;;;;9.10;4.70;;;;;;;20.86;100.00;100250.44;5072948;28;20483;-70
2021/07/14 03:10:07;;;;;;;8.63;5.03;;;;;;;20.82;100.00;100257.88;5072836;28;20441;-68
2021/07/14 03:12:34;;;;;;;13.60;5.63;;;;;;;20.83;100.00;100256.69;5072936;28;20441;-68
2021/07/14 03:15:06;;;;;;;5.73;3.23;;;;;;;20.84;100.00;100262.97;5076353;28;20441;-66
2021/07/14 03:17:33;;;;;;;6.33;4.47;;;;;;;20.85;100.00;100248.84;5076947;28;20421;-67
2021/07/14 03:20:05;;;;;;;7.30;4.40;;;;;;;20.85;100.00;100262.63;5076849;28;20452;-70
2021/07/14 03:22:32;;;;;;;6.77;4.23;;;;;;;20.82;100.00;100255.09;5076992;28;20453;-68
2021/07/14 03:25:01;;;;;;;7.37;4.53;;;;;;;20.85;100.00;100254.34;5076478;28;20965;-68
2021/07/14 03:27:27;;;;;;;7.90;4.80;;;;;;;20.84;100.00;100251.97;5076366;28;21010;-68
2021/07/14 03:29:55;;;;;;;6.17;3.67;;;;;;;20.86;100.00;100253.19;5076404;28;20453;-68
2021/07/14 03:32:21;;;;;;;8.70;4.30;;;;;;;20.83;100.00;100267.69;5076628;28;20449;-68
2021/07/14 03:34:49;;;;;;;6.67;4.43;;;;;;;20.82;100.00;100271.63;5076545;28;20448;-68
2021/07/14 03:37:16;;;;;;;7.00;3.87;;;;;;;20.79;100.00;100272.38;5076509;28;20491;-69
2021/07/14 03:39:43;;;;;;;9.53;4.17;;;;;;;20.77;100.00;100257.41;5076522;28;20460;-68
2021/07/14 03:42:15;;;;;;;4.93;3.87;;;;;;;20.78;100.00;100262.53;5076357;28;20441;-68
2021/07/14 03:44:42;;;;;;;5.43;3.60;;;;;;;20.79;100.00;100252.31;5076406;28;20429;-68
2021/07/14 03:47:10;;;;;;;8.63;4.73;;;;;;;20.79;100.00;100261.34;5076388;28;20444;-68
2021/07/14 03:49:40;;;;;;;5.20;3.80;;;;;;;20.79;100.00;100264.13;5075959;28;20536;-68
2021/07/14 03:52:07;;;;;;;6.03;4.03;;;;;;;20.78;100.00;100268.03;5076429;28;20468;-68
2021/07/14 03:54:34;;;;;;;5.60;3.67;;;;;;;20.77;100.00;100285.75;5076327;28;20445;-68
2021/07/14 03:57:00;;;;;;;5.27;3.37;;;;;;;20.76;100.00;100289.66;5076231;28;20445;-69
2021/07/14 03:59:29;;;;;;;4.53;2.63;;;;;;;20.73;100.00;100287.66;5076047;28;20460;-68
2021/07/14 04:01:57;;;;;;;5.60;3.50;;;;;;;20.71;100.00;100276.22;5076084;28;20437;-69
2021/07/14 04:04:23;;;;;;;8.57;3.43;;;;;;;20.68;100.00;100268.72;5076045;28;20441;-69
2021/07/14 04:06:54;;;;;;;4.80;2.93;;;;;;;20.69;100.00;100262.06;5076000;28;20448;-68
2021/07/14 04:09:22;;;;;;;5.17;3.80;;;;;;;20.71;100.00;100256.94;5075607;28;20900;-68
2021/07/14 04:11:53;;;;;;;7.33;3.90;;;;;;;20.74;100.00;100258.94;5075867;28;20449;-68
2021/07/14 04:14:20;;;;;;;5.07;4.00;;;;;;;20.76;100.00;100264.88;5075826;28;20429;-68
2021/07/14 04:16:47;;;;;;;6.23;3.20;;;;;;;20.77;100.00;100269.22;5075449;28;20946;-69
2021/07/14 04:19:14;;;;;;;4.60;3.20;;;;;;;20.71;100.00;100256.94;5075669;28;20457;-69
2021/07/14 04:21:41;;;;;;;4.63;3.17;;;;;;;20.73;100.00;100265.63;5075722;28;20449;-69
2021/07/14 04:24:07;;;;;;;8.83;3.67;;;;;;;20.66;100.00;100268.31;5075360;28;20460;-67
2021/07/14 04:26:34;;;;;;;8.07;2.67;;;;;;;20.68;100.00;100256.94;5075628;28;20461;-69
2021/07/14 04:29:01;;;;;;;5.37;3.10;;;;;;;20.75;100.00;100263.28;5092741;22;20510;-72
2021/07/14 04:31:27;;;;;;;12.50;3.30;;;;;;;20.74;100.00;100258.94;5035513;28;20439;-73
2021/07/14 04:33:55;;;;;;;6.17;2.80;;;;;;;20.75;100.00;100266.03;5035485;28;20447;-73
2021/07/14 04:36:21;;;;;;;4.27;2.63;;;;;;;20.71;100.00;100273.47;5035359;28;20439;-71
2021/07/14 04:38:48;;;;;;;5.73;3.47;;;;;;;20.71;100.00;100265.22;5035287;28;20435;-71
2021/07/14 04:41:14;;;;;;;5.37;2.97;;;;;;;20.74;100.00;100258.16;5035304;28;20447;-72
2021/07/14 04:43:41;;;;;;;7.57;3.60;;;;;;;20.73;100.00;100268.38;5035324;28;20451;-72
2021/07/14 04:46:07;;;;;;;4.80;3.17;;;;;;;20.73;100.00;100264.84;5034943;28;20522;-72
2021/07/14 04:48:34;;;;;;;6.20;3.60;;;;;;;20.80;100.00;100273.94;5035087;28;20482;-71
2021/07/14 04:51:02;;;;;;;12.73;4.00;;;;;;;20.74;100.00;100269.19;5034793;28;20959;-72
2021/07/14 04:53:28;;;;;;;6.30;3.10;;;;;;;20.69;100.00;100272.28;5035038;28;20474;-71
2021/07/14 04:55:54;;;;;;;6.23;3.00;;;;;;;20.71;100.00;100270.72;5035161;28;20466;-71
2021/07/14 04:58:21;;;;;;;9.67;3.60;;;;;;;20.78;100.00;100261.75;5035004;28;20439;-72
2021/07/14 05:00:47;;;;;;;9.40;4.50;;;;;;;20.85;100.00;100253.53;5034856;28;20459;-72
2021/07/14 05:03:14;;;;;;;6.73;3.13;;;;;;;20.95;100.00;100260.34;5034997;28;20446;-73
2021/07/14 05:05:40;;;;;;;7.20;3.17;;;;;;;21.02;100.00;100260.38;5034880;28;20447;-72
2021/07/14 05:08:08;;;;;;;10.43;4.20;;;;;;;21.06;100.00;100266.72;5034813;28;20479;-71
2021/07/14 05:10:35;;;;;;;7.20;4.10;;;;;;;21.10;100.00;100270.31;5034859;28;20459;-71
2021/07/14 05:13:01;;;;;;;5.10;2.97;;;;;;;21.12;100.00;100268.75;5034712;28;20450;-72
2021/07/14 05:15:29;;;;;;;6.20;3.43;;;;;;;21.13;100.00;100269.56;5034722;28;20439;-72
2021/07/14 05:17:55;;;;;;;6.13;3.60;;;;;;;21.15;100.00;100262.47;5034693;28;20435;-72
2021/07/14 05:20:21;;;;;;;6.57;3.70;;;;;;;21.17;100.00;100262.91;5034581;28;20467;-72
2021/07/14 05:22:48;;;;;;;6.93;3.87;;;;;;;21.25;100.00;100269.28;5034281;28;20986;-71
2021/07/14 05:25:16;;;;;;;10.27;4.50;;;;;;;21.34;100.00;100263.47;5034536;28;20454;-73
2021/07/14 05:27:43;;;;;;;7.23;3.77;;;;;;;21.43;100.00;100266.69;5034489;28;20467;-72
2021/07/14 05:30:11;;;;;;;5.33;3.30;;;;;;;21.51;100.00;100278.53;5033337;28;20495;-72
2021/07/14 05:32:37;;;;;;;7.90;4.10;;;;;;;21.57;100.00;100282.53;5034046;28;20941;-72
2021/07/14 05:35:06;;;;;;;9.90;4.63;;;;;;;21.61;100.00;100288.84;5034014;28;20446;-72
2021/07/14 05:37:33;;;;;;;8.27;3.63;;;;;;;21.63;100.00;100292.00;5033483;28;20435;-72
2021/07/14 05:39:59;;;;;;;8.90;4.40;;;;;;;21.69;100.00;100289.69;5034058;28;20459;-72
2021/07/14 05:42:27;;;;;;;8.20;4.10;;;;;;;21.77;100.00;100294.06;5034152;28;20451;-72
2021/07/14 05:44:53;;;;;;;7.07;4.33;;;;;;;21.84;100.00;100297.66;5034100;28;20447;-72
2021/07/14 05:47:20;;;;;;;9.13;4.37;;;;;;;21.92;100.00;100299.31;5040721;28;20856;-73
2021/07/14 05:49:46;;;;;;;14.23;4.40;;;;;;;21.97;100.00;100300.91;5033840;28;20494;-72
2021/07/14 05:52:14;;;;;;;8.20;4.03;;;;;;;22.04;100.00;100313.94;5033991;28;20442;-73
2021/07/14 05:54:41;;;;;;;7.90;4.00;;;;;;;22.06;100.00;100315.13;5033701;28;20456;-72
2021/07/14 05:57:07;;;;;;;9.50;4.20;;;;;;;22.10;100.00;100313.19;5033893;28;20446;-72
2021/07/14 05:59:35;;;;;;;8.33;4.17;;;;;;;22.19;100.00;100321.16;5033796;28;20463;-71
2021/07/14 06:02:02;;;;;;;10.20;4.80;;;;;;;22.27;100.00;100317.25;5033772;28;20524;-72
2021/07/14 06:04:29;;;;;;;8.57;4.73;;;;;;;22.30;100.00;100313.69;5033745;28;20435;-72
2021/07/14 06:06:56;;;;;;;4.77;3.20;;;;;;;22.34;100.00;100311.75;5033722;28;20450;-72
2021/07/14 06:09:23;;;;;;;11.93;4.83;;;;;;;22.47;100.00;100303.13;5033530;28;20494;-72
2021/07/14 06:11:49;;;;;;;8.57;4.40;;;;;;;22.59;100.00;100298.06;5033583;28;20470;-72
2021/07/14 06:14:16;;;;;;;8.70;4.63;;;;;;;22.67;100.00;100305.19;5033589;28;20452;-74
2021/07/14 06:16:44;;;;;;;5.67;3.90;;;;;;;22.75;100.00;100302.41;5033294;28;21029;-73
2021/07/14 06:19:11;;;;;;;8.77;3.93;;;;;;;22.80;100.00;100307.56;5033479;28;20833;-73
2021/07/14 06:21:38;;;;;;;8.63;5.27;;;;;;;22.85;100.00;100308.00;5033153;28;20826;-74
2021/07/14 06:24:05;;;;;;;8.10;4.90;;;;;;;22.88;100.00;100309.94;5033119;28;20454;-74
2021/07/14 06:26:31;;;;;;;8.63;4.50;;;;;;;22.98;100.00;100310.41;5033376;28;20476;-73
2021/07/14 06:28:57;;;;;;;5.43;3.67;;;;;;;23.00;100.00;100319.09;5033231;28;20499;-73
2021/07/14 06:31:24;;;;;;;10.60;4.87;;;;;;;22.97;100.00;100328.94;5033397;28;20436;-72
2021/07/14 06:33:52;;;;;;;5.90;4.23;;;;;;;22.90;100.00;100340.78;5033324;28;20439;-72
2021/07/14 06:36:19;;;;;;;7.07;4.40;;;;;;;22.78;100.00;100334.78;5033430;28;20446;-72
2021/07/14 06:38:45;;;;;;;7.90;4.23;;;;;;;22.74;100.00;100337.53;5033142;28;20442;-72
2021/07/14 06:41:16;;;;;;;7.67;4.70;;;;;;;22.75;100.00;100349.38;5033342;28;20454;-72
2021/07/14 06:43:45;;;;;;;6.73;4.57;;;;;;;22.72;100.00;100356.47;5033301;28;20438;-73
2021/07/14 06:46:14;;;;;;;8.57;5.07;;;;;;;22.59;100.00;100345.00;5033182;28;20474;-72
2021/07/14 06:48:41;;;;;;;8.97;4.90;;;;;;;22.56;100.00;100345.75;5032628;28;20854;-72
2021/07/14 06:51:10;;;;;;;10.03;5.17;;;;;;;22.58;100.00;100346.19;5032884;28;20944;-72
2021/07/14 06:53:36;;;;;;;14.50;5.70;;;;;;;22.54;100.00;100350.09;5033108;28;20454;-72
2021/07/14 06:56:04;;;;;;;10.67;5.00;;;;;;;22.50;100.00;100360.34;5033084;28;20446;-72
2021/07/14 06:58:30;;;;;;;8.53;5.70;;;;;;;22.46;100.00;100365.03;5033058;28;20439;-73
2021/07/14 07:00:57;;;;;;;7.90;5.20;;;;;;;22.38;100.00;100376.03;5032641;28;20980;-73
2021/07/14 07:03:24;;;;;;;6.07;4.33;;;;;;;22.35;100.00;100371.28;5033029;28;20431;-73
2021/07/14 07:05:51;;;;;;;7.43;4.27;;;;;;;22.28;100.00;100365.75;5032692;28;20451;-74
2021/07/14 07:08:19;;;;;;;5.97;4.10;;;;;;;22.19;100.00;100370.03;5032899;28;20486;-75
2021/07/14 07:10:46;;;;;;;7.63;4.40;;;;;;;22.21;100.00;100359.38;5032877;28;20469;-74
2021/07/14 07:13:15;;;;;;;8.07;4.70;;;;;;;22.24;100.00;100367.69;5032946;28;20447;-74
2021/07/14 07:15:43;;;;;;;9.07;5.40;;;;;;;22.25;100.00;100372.03;5032987;28;20539;-74
2021/07/14 07:18:09;;;;;;;7.03;4.37;;;;;;;22.26;100.00;100362.56;5032906;28;20447;-74
2021/07/14 07:20:36;;;;;;;11.03;5.20;;;;;;;22.36;100.00;100364.63;5032492;28;20475;-73
2021/07/14 07:23:02;;;;;;;5.93;4.00;;;;;;;22.46;100.00;100354.00;5032468;28;20936;-73
2021/07/14 07:25:30;;;;;;;8.67;4.70;;;;;;;22.56;100.00;100361.53;5032854;28;20522;-74
2021/07/14 07:27:59;;;;;;;8.27;5.23;;;;;;;22.65;100.00;100357.22;5032726;28;20458;-73
2021/07/14 07:30:26;;;;;;;13.93;4.20;;;;;;;22.81;100.00;100348.63;5032340;28;20552;-73
2021/07/14 07:32:53;;;;;;;8.30;4.70;;;;;;;22.86;100.00;100347.44;5032799;28;20453;-73
2021/07/14 07:35:19;;;;;;;10.67;4.77;;;;;;;22.97;100.00;100340.00;5032778;28;20980;-72
2021/07/14 07:37:46;;;;;;;9.60;4.80;;;;;;;23.04;100.00;100337.25;5032694;28;20443;-73
2021/07/14 07:40:14;;;;;;;8.53;4.80;;;;;;;23.19;100.00;100328.97;5032426;28;20533;-73
2021/07/14 07:42:42;;;;;;;8.40;5.57;;;;;;;23.33;100.00;100337.28;5032559;28;20841;-73
2021/07/14 07:45:10;;;;;;;8.80;5.27;;;;;;;23.44;98.52;100340.06;5032281;28;20447;-73
2021/07/14 07:47:37;;;;;;;8.47;4.57;;;;;;;23.51;98.15;100335.34;5034360;28;20467;-73
2021/07/14 07:50:05;;;;;;;10.10;4.97;;;;;;;23.55;96.33;100344.41;5038165;28;20492;-72
2021/07/14 07:52:31;;;;;;;6.33;4.30;;;;;;;23.55;95.72;100349.13;5032804;28;20451;-73
2021/07/14 07:55:00;;;;;;;8.30;5.63;;;;;;;23.56;96.25;100370.09;5032596;28;20455;-73
2021/07/14 07:57:27;;;;;;;9.50;5.47;;;;;;;23.48;97.46;100368.50;5032595;28;20493;-74
2021/07/14 07:59:55;;;;;;;7.73;5.53;;;;;;;23.43;97.09;100353.09;5034027;28;20490;-73
2021/07/14 08:02:22;;;;;;;9.50;5.50;;;;;;;23.43;96.23;100333.75;5036070;28;20443;-74
2021/07/14 08:04:48;;;;;;;8.43;5.10;;;;;;;23.52;97.02;100330.59;5036076;28;20451;-73
2021/07/14 08:07:15;;;;;;;7.10;4.67;;;;;;;23.40;95.78;100340.84;5035982;28;20454;-72
2021/07/14 08:09:41;;;;;;;8.13;4.63;;;;;;;23.47;95.27;100348.38;5035736;28;20520;-72
2021/07/14 08:12:09;;;;;;;5.67;4.43;;;;;;;23.56;94.79;100339.69;5035911;28;20795;-75
2021/07/14 08:14:35;;;;;;;8.30;4.23;;;;;;;23.65;93.40;100342.88;5035845;28;20439;-76
2021/07/14 08:17:03;;;;;;;5.70;4.20;;;;;;;23.78;94.29;100344.03;5035850;28;20439;-75
2021/07/14 08:19:30;;;;;;;6.20;5.00;;;;;;;23.89;92.68;100344.78;5035655;28;20487;-77
2021/07/14 08:21:56;;;;;;;5.80;3.80;;;;;;;23.81;91.29;100351.53;5035720;28;20439;-74
2021/07/14 08:24:22;;;;;;;7.33;4.10;;;;;;;24.03;91.70;100346.75;5035657;28;20436;-73
2021/07/14 08:26:49;;;;;;;4.27;3.83;;;;;;;24.15;90.65;100351.88;5035094;28;20797;-73
2021/07/14 08:29:15;;;;;;;4.90;4.10;;;;;;;24.37;90.16;100366.47;5035583;28;20491;-73
2021/07/14 08:31:43;;;;;;;5.67;3.67;;;;;;;24.41;89.19;100381.09;5035511;28;20486;-73
2021/07/14 08:34:11;;;;;;;8.33;4.73;;;;;;;24.19;88.62;100387.84;5035490;28;20451;-74
2021/07/14 08:36:37;;;;;;;9.20;4.27;;;;;;;23.92;89.52;100382.75;5035487;28;20447;-73
2021/07/14 08:39:05;;;;;;;5.17;3.50;;;;;;;23.82;90.22;100389.09;5035350;28;20802;-74
2021/07/14 08:41:32;;;;;;;5.47;3.67;;;;;;;23.76;89.93;100398.94;5035349;28;20451;-73
2021/07/14 08:44:01;;;;;;;4.00;3.40;;;;;;;23.98;91.79;100407.25;5035258;28;20454;-73
2021/07/14 08:46:28;;;;;;;5.07;3.50;;;;;;;24.08;89.79;100421.09;5035278;28;20447;-73
2021/07/14 08:48:55;;;;;;;4.00;3.20;;;;;;;24.13;88.01;100423.44;5035142;28;20533;-74
2021/07/14 08:51:23;;;;;;;4.60;4.13;;;;;;;24.11;88.30;100408.41;5035196;28;20438;-73
2021/07/14 08:53:50;;;;;;;4.60;3.20;;;;;;;24.20;88.29;100408.78;5035156;28;20466;-74
2021/07/14 08:56:17;;;;;;;4.53;3.40;;;;;;;24.33;88.50;100415.50;5035089;28;20455;-73
2021/07/14 08:58:44;;;;;;;3.70;3.30;;;;;;;24.58;89.72;100423.78;5034954;28;20459;-73
2021/07/14 09:01:10;;;;;;;7.17;3.60;;;;;;;24.64;88.70;100429.69;5035014;28;20499;-73
2021/07/14 09:03:36;;;;;;;7.00;4.50;;;;;;;24.75;88.44;100437.97;5034889;28;20455;-74
2021/07/14 09:06:03;;;;;;;7.20;4.30;;;;;;;24.78;88.00;100432.41;5034821;28;20451;-73
2021/07/14 09:08:31;;;;;;;3.93;3.50;;;;;;;24.75;87.42;100426.88;5034882;28;20861;-73
2021/07/14 09:10:57;;;;;;;4.10;3.50;;;;;;;24.84;87.28;100422.50;5033529;28;20494;-73
2021/07/14 09:13:33;;;;;;;5.50;3.80;;;;;;;24.88;88.05;100414.97;5034744;28;20446;-73
2021/07/14 09:16:00;;;;;;;4.97;3.57;;;;;;;24.99;88.44;100401.03;5034716;28;20485;-74
2021/07/14 09:18:28;;;;;;;7.53;4.00;;;;;;;24.97;87.63;100400.66;5034668;28;20449;-73
2021/07/14 09:20:55;;;;;;;7.53;5.03;;;;;;;24.89;86.85;100399.91;5034534;28;20467;-73
2021/07/14 09:23:25;;;;;;;4.30;3.50;;;;;;;24.82;87.08;100402.69;5034223;28;20936;-73
2021/07/14 09:25:55;;;;;;;5.63;4.27;;;;;;;24.81;86.63;100400.34;5034544;28;20447;-74
2021/07/14 09:28:26;;;;;;;4.77;3.13;;;;;;;24.78;85.40;100382.53;5034404;28;20450;-73
2021/07/14 09:30:57;;;;;;;5.03;3.93;;;;;;;24.85;86.81;100376.97;5033875;28;21042;-74
2021/07/14 09:33:23;;;;;;;5.67;3.93;;;;;;;24.95;87.09;100369.78;5034097;28;20929;-73
2021/07/14 09:35:52;;;;;;;6.50;4.40;;;;;;;25.02;86.98;100368.97;5033949;28;20940;-73
2021/07/14 09:38:20;;;;;;;8.50;4.47;;;;;;;24.94;84.90;100365.44;5034202;28;20439;-74
2021/07/14 09:40:49;;;;;;;5.77;4.07;;;;;;;25.00;84.77;100366.56;5034061;28;20466;-74
2021/07/14 09:43:19;;;;;;;6.33;4.30;;;;;;;24.91;82.64;100355.16;5034031;28;20861;-73
2021/07/14 09:45:48;;;;;;;6.10;4.53;;;;;;;25.00;83.52;100351.94;5034138;28;20428;-74
2021/07/14 09:48:18;;;;;;;6.43;3.43;;;;;;;25.17;85.11;100356.59;5033969;28;20447;-74
2021/07/14 09:50:47;;;;;;;4.73;3.80;;;;;;;25.35;85.84;100362.81;5040696;28;20494;-74
2021/07/14 09:53:19;;;;;;;4.70;3.73;;;;;;;25.45;86.22;100375.03;5034002;28;20447;-73
2021/07/14 09:55:45;;;;;;;3.67;3.30;;;;;;;25.44;85.83;100389.31;5033949;28;20432;-73
2021/07/14 09:58:18;;;;;;;8.00;3.73;;;;;;;25.47;85.13;100394.81;5033849;28;20446;-74
2021/07/14 10:00:49;;;;;;;6.63;4.57;;;;;;;25.47;82.45;100405.94;5033795;28;20463;-74
2021/07/14 10:03:24;;;;;;;3.90;3.23;;;;;;;25.29;81.13;100411.59;5033814;28;20432;-74
2021/07/14 10:05:59;;;;;;;4.53;4.00;;;;;;;25.34;82.12;100415.91;5033835;28;20423;-74
2021/07/14 10:08:25;;;;;;;6.33;3.80;;;;;;;25.37;82.87;100427.00;5033619;28;20433;-74
2021/07/14 10:11:07;;;;;;;6.83;4.30;;;;;;;25.43;84.08;100419.03;5033164;28;20860;-74
2021/07/14 10:13:35;;;;;;;6.60;4.50;;;;;;;25.46;82.67;100414.66;5033683;28;20450;-74
2021/07/14 10:16:03;;;;;;;6.73;3.57;;;;;;;25.56;80.79;100424.88;5033568;28;20810;-74
2021/07/14 10:18:32;;;;;;;4.10;3.70;;;;;;;25.55;81.18;100432.41;5033559;28;20447;-74
2021/07/14 10:20:59;;;;;;;5.63;3.63;;;;;;;25.42;80.12;100420.22;5033368;28;20478;-74
2021/07/14 10:23:26;;;;;;;4.50;3.70;;;;;;;25.48;80.82;100417.81;5032829;28;20848;-74
2021/07/14 10:25:53;;;;;;;4.80;4.10;;;;;;;25.63;81.89;100427.59;5033522;28;20443;-73
2021/07/14 10:28:23;;;;;;;5.10;3.30;;;;;;;25.86;82.75;100421.50;5033459;28;20447;-74
2021/07/14 10:30:52;;;;;;;5.50;4.33;;;;;;;25.95;81.99;100437.69;5034495;28;20522;-74
2021/07/14 10:33:20;;;;;;;5.33;3.70;;;;;;;26.06;81.60;100435.59;5033344;28;20446;-74
2021/07/14 10:35:52;;;;;;;6.53;4.00;;;;;;;25.90;79.57;100411.16;5033391;28;20473;-74
2021/07/14 10:38:21;;;;;;;4.40;3.57;;;;;;;25.85;81.54;100419.91;5033015;28;20804;-74
2021/07/14 10:40:50;;;;;;;5.67;4.03;;;;;;;25.81;82.23;100419.97;5033185;28;20463;-74
2021/07/14 10:43:18;;;;;;;5.23;4.10;;;;;;;25.78;82.26;100408.88;5032953;28;20975;-74
2021/07/14 10:45:47;;;;;;;5.03;4.30;;;;;;;25.82;81.33;100413.22;5033202;28;20443;-74
2021/07/14 10:48:17;;;;;;;4.77;4.13;;;;;;;25.84;82.62;100396.94;5033094;28;20482;-74
2021/07/14 10:50:43;;;;;;;5.13;3.57;;;;;;;25.91;80.30;100396.88;5032724;28;21050;-74
2021/07/14 10:53:12;;;;;;;5.43;3.60;;;;;;;25.96;80.08;100403.19;5033152;28;20505;-74
2021/07/14 10:55:40;;;;;;;3.80;3.40;;;;;;;25.95;80.06;100413.50;5033152;28;20481;-74
2021/07/14 10:58:09;;;;;;;5.17;3.73;;;;;;;26.07;81.66;100421.31;5033041;28;20450;-74
2021/07/14 11:00:40;;;;;;;6.20;4.27;;;;;;;26.03;81.46;100414.19;5032976;28;20459;-74
2021/07/14 11:03:07;;;;;;;9.10;4.07;;;;;;;25.99;81.35;100417.03;5032995;28;20442;-74
2021/07/14 11:05:45;;;;;;;9.83;4.43;;;;;;;25.89;81.53;100421.47;5033027;28;20454;-74
2021/07/14 11:08:32;;;;;;;6.33;4.27;;;;;;;25.72;81.53;100416.03;5033007;28;20431;-74
2021/07/14 11:10:59;;;;;;;5.20;3.40;;;;;;;25.62;82.45;100412.16;5032396;28;20494;-74
2021/07/14 11:13:31;;;;;;;7.07;4.70;;;;;;;25.60;80.87;100393.16;5032979;28;20470;-74
2021/07/14 11:15:58;;;;;;;9.70;3.97;;;;;;;25.59;81.13;100393.56;5032989;28;20423;-74
2021/07/14 11:18:40;;;;;;;5.07;3.43;;;;;;;25.64;80.47;100393.13;5032667;28;20967;-73
2021/07/14 11:21:08;;;;;;;4.17;3.50;;;;;;;25.64;80.10;100398.66;5029667;28;20501;-74
2021/07/14 11:23:34;;;;;;;5.53;3.90;;;;;;;25.61;80.25;100400.25;5032857;28;20439;-74
2021/07/14 11:26:03;;;;;;;5.13;3.90;;;;;;;25.61;80.88;100400.25;5032834;28;20443;-74
2021/07/14 11:28:32;;;;;;;5.77;3.50;;;;;;;25.74;82.64;100397.78;5032833;28;20474;-73